sensor_id;sensor_type;location;lat;lon;timestamp;temperature;humidity
38938;DHT22;24727;51.974;20.868;2023-01-30T00:01:04;0.70;90.40
38938;DHT22;24727;51.974;20.868;2023-01-30T00:03:32;0.60;90.30
38938;DHT22;24727;51.974;20.868;2023-01-30T00:05:58;0.70;90.50
38938;DHT22;24727;51.974;20.868;2023-01-30T00:08:25;0.70;90.40
38938;DHT22;24727;51.974;20.868;2023-01-30T00:10:51;0.70;90.40
38938;DHT22;24727;51.974;20.868;2023-01-30T00:13:18;0.70;90.30
38938;DHT22;24727;51.974;20.868;2023-01-30T00:15:43;0.70;90.20
38938;DHT22;24727;51.974;20.868;2023-01-30T00:18:10;0.70;90.20
38938;DHT22;24727;51.974;20.868;2023-01-30T00:20:36;0.70;90.30
38938;DHT22;24727;51.974;20.868;2023-01-30T00:23:02;0.70;89.80
38938;DHT22;24727;51.974;20.868;2023-01-30T00:25:28;0.70;89.60
38938;DHT22;24727;51.974;20.868;2023-01-30T00:28:00;0.70;89.40
38938;DHT22;24727;51.974;20.868;2023-01-30T00:30:26;0.70;89.00
38938;DHT22;24727;51.974;20.868;2023-01-30T00:32:57;0.70;88.20
38938;DHT22;24727;51.974;20.868;2023-01-30T00:35:23;0.70;87.70
38938;DHT22;24727;51.974;20.868;2023-01-30T00:37:58;0.70;86.70
38938;DHT22;24727;51.974;20.868;2023-01-30T00:40:25;0.80;86.10
38938;DHT22;24727;51.974;20.868;2023-01-30T00:42:52;0.70;86.40
38938;DHT22;24727;51.974;20.868;2023-01-30T00:45:38;0.70;86.20
38938;DHT22;24727;51.974;20.868;2023-01-30T00:48:24;0.80;85.70
38938;DHT22;24727;51.974;20.868;2023-01-30T00:50:50;0.70;84.60
38938;DHT22;24727;51.974;20.868;2023-01-30T00:53:16;0.80;84.60
38938;DHT22;24727;51.974;20.868;2023-01-30T00:55:42;0.80;84.70
38938;DHT22;24727;51.974;20.868;2023-01-30T00:58:11;0.80;84.60
38938;DHT22;24727;51.974;20.868;2023-01-30T01:00:38;0.80;85.30
38938;DHT22;24727;51.974;20.868;2023-01-30T01:03:05;0.80;85.80
38938;DHT22;24727;51.974;20.868;2023-01-30T01:05:31;0.70;86.90
38938;DHT22;24727;51.974;20.868;2023-01-30T01:07:57;0.70;87.80
38938;DHT22;24727;51.974;20.868;2023-01-30T01:10:23;0.70;87.40
38938;DHT22;24727;51.974;20.868;2023-01-30T01:12:51;0.70;87.50
38938;DHT22;24727;51.974;20.868;2023-01-30T01:15:17;0.70;87.50
38938;DHT22;24727;51.974;20.868;2023-01-30T01:17:44;0.70;86.60
38938;DHT22;24727;51.974;20.868;2023-01-30T01:20:10;0.70;86.00
38938;DHT22;24727;51.974;20.868;2023-01-30T01:22:37;0.70;85.60
38938;DHT22;24727;51.974;20.868;2023-01-30T01:25:04;0.80;85.00
38938;DHT22;24727;51.974;20.868;2023-01-30T01:27:30;0.80;84.50
38938;DHT22;24727;51.974;20.868;2023-01-30T01:29:58;0.80;83.60
38938;DHT22;24727;51.974;20.868;2023-01-30T01:32:24;0.80;84.20
38938;DHT22;24727;51.974;20.868;2023-01-30T01:34:50;0.80;83.20
38938;DHT22;24727;51.974;20.868;2023-01-30T01:37:17;0.80;83.30
38938;DHT22;24727;51.974;20.868;2023-01-30T01:39:43;0.80;83.00
38938;DHT22;24727;51.974;20.868;2023-01-30T01:42:32;0.80;82.50
38938;DHT22;24727;51.974;20.868;2023-01-30T01:45:20;0.70;81.40
38938;DHT22;24727;51.974;20.868;2023-01-30T01:48:20;0.70;81.00
38938;DHT22;24727;51.974;20.868;2023-01-30T01:50:52;0.70;79.80
38938;DHT22;24727;51.974;20.868;2023-01-30T01:53:25;0.70;80.40
38938;DHT22;24727;51.974;20.868;2023-01-30T01:55:56;0.70;80.60
38938;DHT22;24727;51.974;20.868;2023-01-30T01:58:28;0.60;80.10
38938;DHT22;24727;51.974;20.868;2023-01-30T02:00:57;0.60;80.10
38938;DHT22;24727;51.974;20.868;2023-01-30T02:03:25;0.70;80.50
38938;DHT22;24727;51.974;20.868;2023-01-30T02:05:57;0.70;80.10
38938;DHT22;24727;51.974;20.868;2023-01-30T02:08:33;0.70;78.40
38938;DHT22;24727;51.974;20.868;2023-01-30T02:11:11;0.60;77.90
38938;DHT22;24727;51.974;20.868;2023-01-30T02:13:39;0.60;77.00
38938;DHT22;24727;51.974;20.868;2023-01-30T02:16:07;0.60;76.40
38938;DHT22;24727;51.974;20.868;2023-01-30T02:18:35;0.60;75.00
38938;DHT22;24727;51.974;20.868;2023-01-30T02:21:26;0.60;73.80
38938;DHT22;24727;51.974;20.868;2023-01-30T02:24:28;0.50;72.40
38938;DHT22;24727;51.974;20.868;2023-01-30T02:35:27;0.60;59.30
38938;DHT22;24727;51.974;20.868;2023-01-30T02:38:05;0.60;55.20
38938;DHT22;24727;51.974;20.868;2023-01-30T02:41:09;0.60;47.70
38938;DHT22;24727;51.974;20.868;2023-01-30T02:43:53;0.50;31.90
38938;DHT22;24727;51.974;20.868;2023-01-30T02:46:39;0.50;17.00
38938;DHT22;24727;51.974;20.868;2023-01-30T02:49:28;0.50;13.00
38938;DHT22;24727;51.974;20.868;2023-01-30T02:51:55;0.50;11.70
38938;DHT22;24727;51.974;20.868;2023-01-30T02:54:23;0.50;8.90
38938;DHT22;24727;51.974;20.868;2023-01-30T02:56:51;0.40;13.70
38938;DHT22;24727;51.974;20.868;2023-01-30T02:59:25;0.40;10.60
38938;DHT22;24727;51.974;20.868;2023-01-30T03:10:14;0.30;1.70
38938;DHT22;24727;51.974;20.868;2023-01-30T03:12:48;0.30;1.00
38938;DHT22;24727;51.974;20.868;2023-01-30T03:15:32;0.30;2.60
38938;DHT22;24727;51.974;20.868;2023-01-30T03:18:01;0.30;1.00
38938;DHT22;24727;51.974;20.868;2023-01-30T03:20:28;0.20;3.10
38938;DHT22;24727;51.974;20.868;2023-01-30T03:22:56;0.20;6.00
38938;DHT22;24727;51.974;20.868;2023-01-30T03:25:23;0.20;7.00
38938;DHT22;24727;51.974;20.868;2023-01-30T03:27:53;0.20;12.70
38938;DHT22;24727;51.974;20.868;2023-01-30T03:30:24;0.20;21.40
38938;DHT22;24727;51.974;20.868;2023-01-30T03:32:50;0.10;25.70
38938;DHT22;24727;51.974;20.868;2023-01-30T03:35:16;0.10;32.80
38938;DHT22;24727;51.974;20.868;2023-01-30T03:37:45;0.00;40.10
38938;DHT22;24727;51.974;20.868;2023-01-30T03:40:13;0.10;45.30
38938;DHT22;24727;51.974;20.868;2023-01-30T03:42:39;0.10;48.30
38938;DHT22;24727;51.974;20.868;2023-01-30T03:45:06;0.10;48.70
38938;DHT22;24727;51.974;20.868;2023-01-30T03:47:34;0.00;47.90
38938;DHT22;24727;51.974;20.868;2023-01-30T03:50:00;0.00;46.50
38938;DHT22;24727;51.974;20.868;2023-01-30T03:52:26;0.00;42.60
38938;DHT22;24727;51.974;20.868;2023-01-30T03:54:52;0.00;44.60
38938;DHT22;24727;51.974;20.868;2023-01-30T03:57:19;0.00;38.50
38938;DHT22;24727;51.974;20.868;2023-01-30T03:59:46;0.00;36.90
38938;DHT22;24727;51.974;20.868;2023-01-30T04:02:11;0.00;30.30
38938;DHT22;24727;51.974;20.868;2023-01-30T04:04:39;0.00;31.70
38938;DHT22;24727;51.974;20.868;2023-01-30T04:07:05;0.00;38.40
38938;DHT22;24727;51.974;20.868;2023-01-30T04:09:32;0.00;39.60
38938;DHT22;24727;51.974;20.868;2023-01-30T04:11:58;0.00;39.00
38938;DHT22;24727;51.974;20.868;2023-01-30T04:14:24;0.10;35.30
38938;DHT22;24727;51.974;20.868;2023-01-30T04:16:49;0.00;23.20
38938;DHT22;24727;51.974;20.868;2023-01-30T04:19:16;0.00;15.50
38938;DHT22;24727;51.974;20.868;2023-01-30T04:21:42;0.10;11.50
38938;DHT22;24727;51.974;20.868;2023-01-30T04:24:21;0.10;3.20
38938;DHT22;24727;51.974;20.868;2023-01-30T04:26:46;0.10;1.00
38938;DHT22;24727;51.974;20.868;2023-01-30T04:29:12;0.10;1.00
38938;DHT22;24727;51.974;20.868;2023-01-30T04:31:39;0.20;1.00
38938;DHT22;24727;51.974;20.868;2023-01-30T04:34:06;0.20;1.00
38938;DHT22;24727;51.974;20.868;2023-01-30T04:36:44;0.20;1.00
38938;DHT22;24727;51.974;20.868;2023-01-30T04:39:10;0.30;1.00
38938;DHT22;24727;51.974;20.868;2023-01-30T04:41:43;0.20;1.00
38938;DHT22;24727;51.974;20.868;2023-01-30T04:44:09;0.20;1.00
38938;DHT22;24727;51.974;20.868;2023-01-30T04:46:36;0.30;1.00
38938;DHT22;24727;51.974;20.868;2023-01-30T04:49:02;0.30;1.00
38938;DHT22;24727;51.974;20.868;2023-01-30T04:51:28;0.20;1.00
38938;DHT22;24727;51.974;20.868;2023-01-30T04:53:54;0.20;1.00
38938;DHT22;24727;51.974;20.868;2023-01-30T04:56:20;0.20;1.00
38938;DHT22;24727;51.974;20.868;2023-01-30T04:58:47;0.20;1.00
38938;DHT22;24727;51.974;20.868;2023-01-30T05:01:14;0.20;1.00
38938;DHT22;24727;51.974;20.868;2023-01-30T05:03:40;0.20;1.00
38938;DHT22;24727;51.974;20.868;2023-01-30T05:06:06;0.10;1.00
38938;DHT22;24727;51.974;20.868;2023-01-30T05:08:38;0.10;1.00
38938;DHT22;24727;51.974;20.868;2023-01-30T05:11:10;0.10;1.00
38938;DHT22;24727;51.974;20.868;2023-01-30T05:13:36;0.10;1.00
38938;DHT22;24727;51.974;20.868;2023-01-30T05:16:02;0.10;1.00
38938;DHT22;24727;51.974;20.868;2023-01-30T05:18:29;0.10;1.00
38938;DHT22;24727;51.974;20.868;2023-01-30T05:21:09;0.10;1.00
38938;DHT22;24727;51.974;20.868;2023-01-30T05:23:36;0.10;1.00
38938;DHT22;24727;51.974;20.868;2023-01-30T05:26:04;0.10;1.00
38938;DHT22;24727;51.974;20.868;2023-01-30T05:28:30;0.10;1.00
38938;DHT22;24727;51.974;20.868;2023-01-30T05:31:01;0.00;1.00
38938;DHT22;24727;51.974;20.868;2023-01-30T05:33:28;0.00;1.00
38938;DHT22;24727;51.974;20.868;2023-01-30T05:35:54;0.00;1.00
38938;DHT22;24727;51.974;20.868;2023-01-30T05:38:22;-0.10;1.00
38938;DHT22;24727;51.974;20.868;2023-01-30T05:41:00;0.00;1.00
38938;DHT22;24727;51.974;20.868;2023-01-30T05:43:27;-0.10;1.00
38938;DHT22;24727;51.974;20.868;2023-01-30T05:45:54;-0.10;1.00
38938;DHT22;24727;51.974;20.868;2023-01-30T05:48:22;-0.10;1.00
38938;DHT22;24727;51.974;20.868;2023-01-30T05:50:52;-0.10;1.00
38938;DHT22;24727;51.974;20.868;2023-01-30T05:53:19;-0.10;1.00
38938;DHT22;24727;51.974;20.868;2023-01-30T05:55:46;-0.10;1.00
38938;DHT22;24727;51.974;20.868;2023-01-30T05:58:12;0.00;1.00
38938;DHT22;24727;51.974;20.868;2023-01-30T06:00:39;-0.10;1.00
38938;DHT22;24727;51.974;20.868;2023-01-30T06:03:06;-0.10;1.00
38938;DHT22;24727;51.974;20.868;2023-01-30T06:05:31;-0.10;1.00
38938;DHT22;24727;51.974;20.868;2023-01-30T06:07:57;0.00;1.00
38938;DHT22;24727;51.974;20.868;2023-01-30T06:10:24;0.00;1.00
38938;DHT22;24727;51.974;20.868;2023-01-30T06:12:51;-0.10;1.00
38938;DHT22;24727;51.974;20.868;2023-01-30T06:15:17;0.00;1.00
38938;DHT22;24727;51.974;20.868;2023-01-30T06:17:43;0.00;1.00
38938;DHT22;24727;51.974;20.868;2023-01-30T06:20:10;0.00;1.00
38938;DHT22;24727;51.974;20.868;2023-01-30T06:22:37;0.00;1.00
38938;DHT22;24727;51.974;20.868;2023-01-30T06:25:03;0.00;1.00
38938;DHT22;24727;51.974;20.868;2023-01-30T06:27:29;0.00;1.00
38938;DHT22;24727;51.974;20.868;2023-01-30T06:29:56;-0.10;1.00
38938;DHT22;24727;51.974;20.868;2023-01-30T06:32:22;-0.10;1.00
38938;DHT22;24727;51.974;20.868;2023-01-30T06:34:48;-0.10;1.00
38938;DHT22;24727;51.974;20.868;2023-01-30T06:37:13;-0.10;1.00
38938;DHT22;24727;51.974;20.868;2023-01-30T06:39:40;-0.10;1.00
38938;DHT22;24727;51.974;20.868;2023-01-30T06:42:06;-0.10;1.00
38938;DHT22;24727;51.974;20.868;2023-01-30T06:44:32;-0.10;1.00
38938;DHT22;24727;51.974;20.868;2023-01-30T06:46:58;-0.10;1.00
38938;DHT22;24727;51.974;20.868;2023-01-30T06:49:24;-0.20;1.00
38938;DHT22;24727;51.974;20.868;2023-01-30T06:51:50;-0.10;1.00
38938;DHT22;24727;51.974;20.868;2023-01-30T06:54:16;-0.20;1.00
38938;DHT22;24727;51.974;20.868;2023-01-30T06:56:42;-0.20;1.00
38938;DHT22;24727;51.974;20.868;2023-01-30T06:59:08;-0.20;1.00
38938;DHT22;24727;51.974;20.868;2023-01-30T07:01:36;-0.20;1.00
38938;DHT22;24727;51.974;20.868;2023-01-30T07:04:03;-0.20;1.00
38938;DHT22;24727;51.974;20.868;2023-01-30T07:06:29;-0.20;1.00
38938;DHT22;24727;51.974;20.868;2023-01-30T07:08:55;-0.20;1.00
38938;DHT22;24727;51.974;20.868;2023-01-30T07:11:26;-0.20;1.00
38938;DHT22;24727;51.974;20.868;2023-01-30T07:13:53;-0.20;1.00
38938;DHT22;24727;51.974;20.868;2023-01-30T07:16:19;-0.20;1.00
38938;DHT22;24727;51.974;20.868;2023-01-30T07:18:45;-0.20;1.00
38938;DHT22;24727;51.974;20.868;2023-01-30T07:21:12;-0.20;1.00
38938;DHT22;24727;51.974;20.868;2023-01-30T07:23:39;-0.20;1.00
38938;DHT22;24727;51.974;20.868;2023-01-30T07:26:05;-0.20;1.00
38938;DHT22;24727;51.974;20.868;2023-01-30T07:28:32;-0.20;1.00
38938;DHT22;24727;51.974;20.868;2023-01-30T07:31:00;-0.30;1.00
38938;DHT22;24727;51.974;20.868;2023-01-30T07:33:26;-0.30;1.00
38938;DHT22;24727;51.974;20.868;2023-01-30T07:35:59;-0.30;1.00
38938;DHT22;24727;51.974;20.868;2023-01-30T07:38:25;-0.30;1.00
38938;DHT22;24727;51.974;20.868;2023-01-30T07:40:52;-0.40;1.00
38938;DHT22;24727;51.974;20.868;2023-01-30T07:43:18;-0.40;1.00
38938;DHT22;24727;51.974;20.868;2023-01-30T07:45:47;-0.50;1.00
38938;DHT22;24727;51.974;20.868;2023-01-30T07:48:17;-0.50;1.00
38938;DHT22;24727;51.974;20.868;2023-01-30T07:50:45;-0.50;1.00
38938;DHT22;24727;51.974;20.868;2023-01-30T07:53:14;-0.50;1.00
38938;DHT22;24727;51.974;20.868;2023-01-30T07:55:40;-0.60;1.00
38938;DHT22;24727;51.974;20.868;2023-01-30T07:58:11;-0.60;1.00
38938;DHT22;24727;51.974;20.868;2023-01-30T08:00:38;-0.50;1.00
38938;DHT22;24727;51.974;20.868;2023-01-30T08:03:04;-0.60;1.00
38938;DHT22;24727;51.974;20.868;2023-01-30T08:05:36;-0.50;1.00
38938;DHT22;24727;51.974;20.868;2023-01-30T08:08:04;-0.40;1.00
38938;DHT22;24727;51.974;20.868;2023-01-30T08:10:30;-0.50;1.00
38938;DHT22;24727;51.974;20.868;2023-01-30T08:12:56;-0.50;1.00
38938;DHT22;24727;51.974;20.868;2023-01-30T08:15:23;-0.50;1.00
38938;DHT22;24727;51.974;20.868;2023-01-30T08:17:56;-0.50;1.00
38938;DHT22;24727;51.974;20.868;2023-01-30T08:20:23;-0.50;1.00
38938;DHT22;24727;51.974;20.868;2023-01-30T08:22:52;-0.60;1.00
38938;DHT22;24727;51.974;20.868;2023-01-30T08:25:30;-0.60;1.00
38938;DHT22;24727;51.974;20.868;2023-01-30T08:27:58;-0.70;1.00
38938;DHT22;24727;51.974;20.868;2023-01-30T08:30:26;-0.70;1.00
38938;DHT22;24727;51.974;20.868;2023-01-30T08:32:52;-0.70;1.00
38938;DHT22;24727;51.974;20.868;2023-01-30T08:35:18;-0.70;1.00
38938;DHT22;24727;51.974;20.868;2023-01-30T08:37:45;-0.70;1.00
38938;DHT22;24727;51.974;20.868;2023-01-30T08:40:12;-0.70;1.00
38938;DHT22;24727;51.974;20.868;2023-01-30T08:42:38;-0.80;1.00
38938;DHT22;24727;51.974;20.868;2023-01-30T08:45:05;-0.70;1.00
38938;DHT22;24727;51.974;20.868;2023-01-30T08:47:32;-0.70;1.00
38938;DHT22;24727;51.974;20.868;2023-01-30T08:50:00;-0.80;1.00
38938;DHT22;24727;51.974;20.868;2023-01-30T08:52:26;-0.80;11.70
38938;DHT22;24727;51.974;20.868;2023-01-30T08:54:52;-0.80;16.40
38938;DHT22;24727;51.974;20.868;2023-01-30T08:57:19;-0.80;28.70
38938;DHT22;24727;51.974;20.868;2023-01-30T08:59:45;-0.90;37.30
38938;DHT22;24727;51.974;20.868;2023-01-30T09:02:12;-0.90;48.10
38938;DHT22;24727;51.974;20.868;2023-01-30T09:04:38;-0.90;52.00
38938;DHT22;24727;51.974;20.868;2023-01-30T09:07:18;-0.90;57.80
38938;DHT22;24727;51.974;20.868;2023-01-30T09:09:45;-0.90;60.90
38938;DHT22;24727;51.974;20.868;2023-01-30T09:12:13;-0.80;64.20
38938;DHT22;24727;51.974;20.868;2023-01-30T09:14:39;-0.90;62.50
38938;DHT22;24727;51.974;20.868;2023-01-30T09:17:05;-0.80;68.80
38938;DHT22;24727;51.974;20.868;2023-01-30T09:19:31;-0.90;71.50
38938;DHT22;24727;51.974;20.868;2023-01-30T09:21:57;-0.90;73.70
38938;DHT22;24727;51.974;20.868;2023-01-30T09:24:23;-0.90;76.30
38938;DHT22;24727;51.974;20.868;2023-01-30T09:26:54;-0.80;77.90
38938;DHT22;24727;51.974;20.868;2023-01-30T09:29:22;-0.70;79.30
38938;DHT22;24727;51.974;20.868;2023-01-30T09:31:49;-0.80;76.80
38938;DHT22;24727;51.974;20.868;2023-01-30T09:34:15;-0.70;76.10
38938;DHT22;24727;51.974;20.868;2023-01-30T09:36:41;-0.70;72.90
38938;DHT22;24727;51.974;20.868;2023-01-30T09:39:08;-0.60;72.80
38938;DHT22;24727;51.974;20.868;2023-01-30T09:47:49;-0.60;72.30
38938;DHT22;24727;51.974;20.868;2023-01-30T09:50:42;-0.50;76.50
38938;DHT22;24727;51.974;20.868;2023-01-30T09:56:15;-0.50;78.10
38938;DHT22;24727;51.974;20.868;2023-01-30T09:59:00;-0.50;74.80
38938;DHT22;24727;51.974;20.868;2023-01-30T10:04:26;-0.40;74.10
38938;DHT22;24727;51.974;20.868;2023-01-30T10:23:20;-0.40;80.30
38938;DHT22;24727;51.974;20.868;2023-01-30T10:26:01;-0.40;80.40
38938;DHT22;24727;51.974;20.868;2023-01-30T10:28:36;-0.30;80.60
38938;DHT22;24727;51.974;20.868;2023-01-30T10:31:24;-0.30;80.30
38938;DHT22;24727;51.974;20.868;2023-01-30T10:33:58;-0.20;80.00
38938;DHT22;24727;51.974;20.868;2023-01-30T10:36:51;-0.20;80.80
38938;DHT22;24727;51.974;20.868;2023-01-30T10:42:28;-0.20;87.30
38938;DHT22;24727;51.974;20.868;2023-01-30T10:45:08;-0.30;89.20
38938;DHT22;24727;51.974;20.868;2023-01-30T10:51:02;-0.20;91.90
38938;DHT22;24727;51.974;20.868;2023-01-30T10:58:50;-0.20;93.10
38938;DHT22;24727;51.974;20.868;2023-01-30T11:01:31;-0.20;92.80
38938;DHT22;24727;51.974;20.868;2023-01-30T11:04:03;-0.20;92.80
38938;DHT22;24727;51.974;20.868;2023-01-30T11:06:33;-0.20;92.90
38938;DHT22;24727;51.974;20.868;2023-01-30T11:08:59;-0.10;93.40
38938;DHT22;24727;51.974;20.868;2023-01-30T11:16:39;-0.10;93.80
38938;DHT22;24727;51.974;20.868;2023-01-30T11:19:07;-0.20;94.20
38938;DHT22;24727;51.974;20.868;2023-01-30T11:21:34;-0.10;94.20
38938;DHT22;24727;51.974;20.868;2023-01-30T11:24:14;-0.10;94.50
38938;DHT22;24727;51.974;20.868;2023-01-30T11:26:41;-0.10;94.60
38938;DHT22;24727;51.974;20.868;2023-01-30T11:29:27;0.00;94.30
38938;DHT22;24727;51.974;20.868;2023-01-30T11:31:55;0.00;94.50
38938;DHT22;24727;51.974;20.868;2023-01-30T11:34:23;0.00;94.30
38938;DHT22;24727;51.974;20.868;2023-01-30T11:36:50;0.10;94.00
38938;DHT22;24727;51.974;20.868;2023-01-30T11:41:58;0.20;92.10
38938;DHT22;24727;51.974;20.868;2023-01-30T11:44:34;0.30;90.90
38938;DHT22;24727;51.974;20.868;2023-01-30T11:47:11;0.30;90.00
38938;DHT22;24727;51.974;20.868;2023-01-30T11:49:43;0.40;89.40
38938;DHT22;24727;51.974;20.868;2023-01-30T11:52:18;0.40;88.80
38938;DHT22;24727;51.974;20.868;2023-01-30T11:54:45;0.50;87.30
38938;DHT22;24727;51.974;20.868;2023-01-30T11:57:14;0.50;86.60
38938;DHT22;24727;51.974;20.868;2023-01-30T12:00:00;0.50;85.60
38938;DHT22;24727;51.974;20.868;2023-01-30T12:02:36;0.60;86.60
38938;DHT22;24727;51.974;20.868;2023-01-30T12:05:50;0.60;87.60
38938;DHT22;24727;51.974;20.868;2023-01-30T12:07:51;0.50;88.20
38938;DHT22;24727;51.974;20.868;2023-01-30T12:10:25;0.50;88.80
38938;DHT22;24727;51.974;20.868;2023-01-30T12:13:01;0.50;89.80
38938;DHT22;24727;51.974;20.868;2023-01-30T12:15:32;0.50;90.90
38938;DHT22;24727;51.974;20.868;2023-01-30T12:26:11;0.50;91.20
38938;DHT22;24727;51.974;20.868;2023-01-30T12:28:55;0.60;90.60
38938;DHT22;24727;51.974;20.868;2023-01-30T12:31:31;0.60;90.60
38938;DHT22;24727;51.974;20.868;2023-01-30T12:33:58;0.60;90.40
38938;DHT22;24727;51.974;20.868;2023-01-30T12:36:34;0.70;91.60
38938;DHT22;24727;51.974;20.868;2023-01-30T12:39:32;0.70;89.80
38938;DHT22;24727;51.974;20.868;2023-01-30T12:45:13;0.70;89.30
38938;DHT22;24727;51.974;20.868;2023-01-30T13:04:47;0.80;90.70
38938;DHT22;24727;51.974;20.868;2023-01-30T13:07:45;0.90;90.90
38938;DHT22;24727;51.974;20.868;2023-01-30T13:10:35;0.90;90.70
38938;DHT22;24727;51.974;20.868;2023-01-30T13:13:07;0.90;89.50
38938;DHT22;24727;51.974;20.868;2023-01-30T13:16:03;0.90;88.80
38938;DHT22;24727;51.974;20.868;2023-01-30T13:18:47;1.00;88.00
38938;DHT22;24727;51.974;20.868;2023-01-30T13:21:22;1.00;87.20
38938;DHT22;24727;51.974;20.868;2023-01-30T13:26:57;1.10;87.30
38938;DHT22;24727;51.974;20.868;2023-01-30T13:29:37;1.10;87.20
38938;DHT22;24727;51.974;20.868;2023-01-30T13:35:05;1.10;88.20
38938;DHT22;24727;51.974;20.868;2023-01-30T13:37:33;1.10;88.60
38938;DHT22;24727;51.974;20.868;2023-01-30T13:40:17;1.10;88.50
38938;DHT22;24727;51.974;20.868;2023-01-30T13:45:54;1.10;87.40
38938;DHT22;24727;51.974;20.868;2023-01-30T13:48:54;1.10;87.30
38938;DHT22;24727;51.974;20.868;2023-01-30T14:00:19;1.00;92.40
38938;DHT22;24727;51.974;20.868;2023-01-30T14:08:29;1.00;92.90
38938;DHT22;24727;51.974;20.868;2023-01-30T14:10:58;1.00;93.50
38938;DHT22;24727;51.974;20.868;2023-01-30T14:13:25;1.00;93.80
38938;DHT22;24727;51.974;20.868;2023-01-30T14:16:05;0.90;94.00
38938;DHT22;24727;51.974;20.868;2023-01-30T14:18:35;1.00;94.20
38938;DHT22;24727;51.974;20.868;2023-01-30T14:21:19;1.00;94.20
38938;DHT22;24727;51.974;20.868;2023-01-30T14:24:04;1.00;94.10
38938;DHT22;24727;51.974;20.868;2023-01-30T14:34:43;1.10;92.90
38938;DHT22;24727;51.974;20.868;2023-01-30T14:41:22;1.10;93.10
38938;DHT22;24727;51.974;20.868;2023-01-30T14:45:49;1.10;93.80
38938;DHT22;24727;51.974;20.868;2023-01-30T14:48:26;1.10;93.90
38938;DHT22;24727;51.974;20.868;2023-01-30T15:02:03;1.10;94.70
38938;DHT22;24727;51.974;20.868;2023-01-30T15:16:06;1.10;95.10
38938;DHT22;24727;51.974;20.868;2023-01-30T15:26:39;1.20;94.10
38938;DHT22;24727;51.974;20.868;2023-01-30T15:32:00;1.20;93.20
38938;DHT22;24727;51.974;20.868;2023-01-30T15:34:28;1.30;93.00
38938;DHT22;24727;51.974;20.868;2023-01-30T15:36:56;1.30;92.80
38938;DHT22;24727;51.974;20.868;2023-01-30T15:39:27;1.30;92.80
38938;DHT22;24727;51.974;20.868;2023-01-30T15:42:03;1.30;92.70
38938;DHT22;24727;51.974;20.868;2023-01-30T15:44:46;1.30;92.60
38938;DHT22;24727;51.974;20.868;2023-01-30T15:49:58;1.40;92.30
38938;DHT22;24727;51.974;20.868;2023-01-30T15:52:37;1.40;91.90
38938;DHT22;24727;51.974;20.868;2023-01-30T15:55:12;1.30;91.90
38938;DHT22;24727;51.974;20.868;2023-01-30T15:57:39;1.40;92.00
38938;DHT22;24727;51.974;20.868;2023-01-30T16:00:07;1.40;91.80
38938;DHT22;24727;51.974;20.868;2023-01-30T16:02:36;1.40;91.90
38938;DHT22;24727;51.974;20.868;2023-01-30T16:05:15;1.40;91.70
38938;DHT22;24727;51.974;20.868;2023-01-30T16:07:43;1.50;91.60
38938;DHT22;24727;51.974;20.868;2023-01-30T16:10:22;1.40;91.60
38938;DHT22;24727;51.974;20.868;2023-01-30T16:12:49;1.50;91.50
38938;DHT22;24727;51.974;20.868;2023-01-30T16:18:11;1.50;90.90
38938;DHT22;24727;51.974;20.868;2023-01-30T16:20:48;1.50;90.80
38938;DHT22;24727;51.974;20.868;2023-01-30T16:23:40;1.50;90.80
38938;DHT22;24727;51.974;20.868;2023-01-30T16:26:12;1.50;91.10
38938;DHT22;24727;51.974;20.868;2023-01-30T16:28:42;1.50;90.90
38938;DHT22;24727;51.974;20.868;2023-01-30T16:31:09;1.50;90.80
38938;DHT22;24727;51.974;20.868;2023-01-30T16:33:36;1.50;90.90
38938;DHT22;24727;51.974;20.868;2023-01-30T16:38:52;1.60;90.40
38938;DHT22;24727;51.974;20.868;2023-01-30T16:41:39;1.60;90.20
38938;DHT22;24727;51.974;20.868;2023-01-30T16:44:30;1.60;90.20
38938;DHT22;24727;51.974;20.868;2023-01-30T16:50:01;1.60;89.40
38938;DHT22;24727;51.974;20.868;2023-01-30T16:52:37;1.70;89.10
38938;DHT22;24727;51.974;20.868;2023-01-30T16:55:20;1.70;88.60
38938;DHT22;24727;51.974;20.868;2023-01-30T16:57:53;1.60;88.40
38938;DHT22;24727;51.974;20.868;2023-01-30T17:02:55;1.60;88.80
38938;DHT22;24727;51.974;20.868;2023-01-30T17:05:25;1.60;89.00
38938;DHT22;24727;51.974;20.868;2023-01-30T17:07:54;1.60;89.30
38938;DHT22;24727;51.974;20.868;2023-01-30T17:10:50;1.60;89.40
38938;DHT22;24727;51.974;20.868;2023-01-30T17:13:35;1.60;89.40
38938;DHT22;24727;51.974;20.868;2023-01-30T17:18:56;1.70;89.10
38938;DHT22;24727;51.974;20.868;2023-01-30T17:21:25;1.70;89.20
38938;DHT22;24727;51.974;20.868;2023-01-30T17:24:03;1.70;89.40
38938;DHT22;24727;51.974;20.868;2023-01-30T17:26:30;1.70;89.00
38938;DHT22;24727;51.974;20.868;2023-01-30T17:29:04;1.80;88.60
38938;DHT22;24727;51.974;20.868;2023-01-30T17:31:31;1.70;88.20
38938;DHT22;24727;51.974;20.868;2023-01-30T17:33:57;1.70;88.30
38938;DHT22;24727;51.974;20.868;2023-01-30T17:36:27;1.80;88.30
38938;DHT22;24727;51.974;20.868;2023-01-30T17:38:54;1.80;87.90
38938;DHT22;24727;51.974;20.868;2023-01-30T17:41:26;1.80;87.70
38938;DHT22;24727;51.974;20.868;2023-01-30T17:43:58;1.80;88.00
38938;DHT22;24727;51.974;20.868;2023-01-30T17:46:43;1.90;87.70
38938;DHT22;24727;51.974;20.868;2023-01-30T17:49:20;1.90;86.90
38938;DHT22;24727;51.974;20.868;2023-01-30T17:51:47;2.00;86.30
38938;DHT22;24727;51.974;20.868;2023-01-30T17:54:15;2.00;85.50
38938;DHT22;24727;51.974;20.868;2023-01-30T17:56:45;2.00;85.60
38938;DHT22;24727;51.974;20.868;2023-01-30T17:59:17;2.00;85.80
38938;DHT22;24727;51.974;20.868;2023-01-30T18:01:49;2.00;85.30
38938;DHT22;24727;51.974;20.868;2023-01-30T18:04:19;2.00;85.30
38938;DHT22;24727;51.974;20.868;2023-01-30T18:06:59;2.10;85.10
38938;DHT22;24727;51.974;20.868;2023-01-30T18:09:31;2.10;84.00
38938;DHT22;24727;51.974;20.868;2023-01-30T18:11:58;2.10;83.60
38938;DHT22;24727;51.974;20.868;2023-01-30T18:14:24;2.10;83.10
38938;DHT22;24727;51.974;20.868;2023-01-30T18:16:52;2.20;81.70
38938;DHT22;24727;51.974;20.868;2023-01-30T18:19:28;2.20;81.00
38938;DHT22;24727;51.974;20.868;2023-01-30T18:21:56;2.20;81.50
38938;DHT22;24727;51.974;20.868;2023-01-30T18:24:23;2.30;80.90
38938;DHT22;24727;51.974;20.868;2023-01-30T18:26:50;2.30;81.30
38938;DHT22;24727;51.974;20.868;2023-01-30T18:29:17;2.30;82.10
38938;DHT22;24727;51.974;20.868;2023-01-30T18:31:45;2.30;81.20
38938;DHT22;24727;51.974;20.868;2023-01-30T18:34:12;2.30;80.70
38938;DHT22;24727;51.974;20.868;2023-01-30T18:36:39;2.30;80.80
38938;DHT22;24727;51.974;20.868;2023-01-30T18:39:06;2.40;80.80
38938;DHT22;24727;51.974;20.868;2023-01-30T18:41:33;2.40;79.80
38938;DHT22;24727;51.974;20.868;2023-01-30T18:44:05;2.40;80.10
38938;DHT22;24727;51.974;20.868;2023-01-30T18:46:31;2.30;79.80
38938;DHT22;24727;51.974;20.868;2023-01-30T18:48:58;2.30;79.90
38938;DHT22;24727;51.974;20.868;2023-01-30T18:51:30;2.30;80.20
38938;DHT22;24727;51.974;20.868;2023-01-30T18:54:01;2.20;81.20